sensor_id;sensor_type;location;lat;lon;timestamp;P1;P4;P2;P0;N10;N4;N25;N1;N05;TS
65875;SPS30;52657;51.128;5.938;2023-02-01T00:00:19;6.39;6.34;6.25;5.80;46.31;46.29;46.25;45.97;39.40;0.61
65875;SPS30;52657;51.128;5.938;2023-02-01T00:02:45;6.18;6.12;6.00;5.53;44.17;44.16;44.11;43.81;37.49;0.62
65875;SPS30;52657;51.128;5.938;2023-02-01T00:05:11;6.99;6.88;6.66;6.05;48.29;48.28;48.20;47.76;40.70;0.65
65875;SPS30;52657;51.128;5.938;2023-02-01T00:07:37;6.78;6.65;6.39;5.75;45.90;45.88;45.80;45.32;38.53;0.67
65875;SPS30;52657;51.128;5.938;2023-02-01T00:10:04;6.48;6.35;6.10;5.48;43.75;43.73;43.65;43.19;36.70;0.66
65875;SPS30;52657;51.128;5.938;2023-02-01T00:12:31;6.43;6.28;6.00;5.35;42.72;42.70;42.62;42.12;35.72;0.67
65875;SPS30;52657;51.128;5.938;2023-02-01T00:14:57;6.75;6.56;6.19;5.44;43.43;43.41;43.30;42.69;36.06;0.68
65875;SPS30;52657;51.128;5.938;2023-02-01T00:17:23;7.10;6.90;6.51;5.72;45.66;45.64;45.52;44.88;37.90;0.66
65875;SPS30;52657;51.128;5.938;2023-02-01T00:19:49;6.44;6.30;6.03;5.39;43.08;43.06;42.98;42.49;36.07;0.66
65875;SPS30;52657;51.128;5.938;2023-02-01T00:22:15;6.56;6.36;5.97;5.19;41.46;41.44;41.32;40.69;34.28;0.69
65875;SPS30;52657;51.128;5.938;2023-02-01T00:24:40;6.40;6.23;5.91;5.21;41.65;41.63;41.53;40.98;34.66;0.68
65875;SPS30;52657;51.128;5.938;2023-02-01T00:27:06;6.17;6.01;5.69;5.01;40.05;40.03;39.94;39.40;33.32;0.67
65875;SPS30;52657;51.128;5.938;2023-02-01T00:29:32;6.30;6.15;5.85;5.19;41.42;41.40;41.31;40.79;34.55;0.65
65875;SPS30;52657;51.128;5.938;2023-02-01T00:31:57;5.82;5.67;5.38;4.76;38.00;37.98;37.90;37.41;31.65;0.63
65875;SPS30;52657;51.128;5.938;2023-02-01T00:34:23;5.60;5.46;5.17;4.55;36.36;36.34;36.25;35.77;30.24;0.65
65875;SPS30;52657;51.128;5.938;2023-02-01T00:36:49;6.06;5.86;5.48;4.74;37.86;37.84;37.73;37.12;31.23;0.66
65875;SPS30;52657;51.128;5.938;2023-02-01T00:39:15;6.35;6.10;5.62;4.75;37.96;37.93;37.79;37.05;30.97;0.67
65875;SPS30;52657;51.128;5.938;2023-02-01T00:41:41;6.32;6.07;5.58;4.72;37.68;37.65;37.52;36.77;30.72;0.69
65875;SPS30;52657;51.128;5.938;2023-02-01T00:44:07;5.99;5.76;5.32;4.52;36.09;36.07;35.94;35.26;29.51;0.67
65875;SPS30;52657;51.128;5.938;2023-02-01T00:46:33;6.03;5.80;5.33;4.51;36.02;36.00;35.87;35.16;29.38;0.69
65875;SPS30;52657;51.128;5.938;2023-02-01T00:49:00;6.17;5.88;5.32;4.38;35.01;34.99;34.83;34.01;28.20;0.71
65875;SPS30;52657;51.128;5.938;2023-02-01T00:51:27;6.18;5.90;5.35;4.42;35.32;35.29;35.14;34.33;28.49;0.69
65875;SPS30;52657;51.128;5.938;2023-02-01T00:53:54;6.33;6.06;5.55;4.65;37.16;37.13;36.99;36.21;30.19;0.68
65875;SPS30;52657;51.128;5.938;2023-02-01T00:56:21;6.19;5.93;5.42;4.53;36.21;36.18;36.04;35.27;29.38;0.68
65875;SPS30;52657;51.128;5.938;2023-02-01T00:58:46;6.54;6.29;5.81;4.95;39.51;39.49;39.35;38.61;32.33;0.69
65875;SPS30;52657;51.128;5.938;2023-02-01T01:01:16;5.73;5.60;5.35;4.76;38.05;38.03;37.95;37.51;31.81;0.66
65875;SPS30;52657;51.128;5.938;2023-02-01T01:03:49;5.77;5.62;5.34;4.73;37.78;37.76;37.68;37.19;31.49;0.68
65875;SPS30;52657;51.128;5.938;2023-02-01T01:06:22;7.06;6.77;6.21;5.22;41.74;41.71;41.55;40.70;33.96;0.70
65875;SPS30;52657;51.128;5.938;2023-02-01T01:08:53;6.85;6.56;6.00;5.03;40.18;40.15;40.00;39.16;32.64;0.68
65875;SPS30;52657;51.128;5.938;2023-02-01T01:11:24;6.05;5.85;5.48;4.74;37.89;37.87;37.76;37.15;31.26;0.65
65875;SPS30;52657;51.128;5.938;2023-02-01T01:13:52;6.07;5.91;5.60;4.94;39.46;39.44;39.34;38.82;32.83;0.65
65875;SPS30;52657;51.128;5.938;2023-02-01T01:16:20;6.40;6.20;5.83;5.08;40.62;40.60;40.49;39.88;33.62;0.69
65875;SPS30;52657;51.128;5.938;2023-02-01T01:18:48;6.58;6.36;5.94;5.12;40.93;40.91;40.79;40.11;33.72;0.67
65875;SPS30;52657;51.128;5.938;2023-02-01T01:21:16;6.60;6.37;5.90;5.04;40.26;40.23;40.10;39.38;33.00;0.67
65875;SPS30;52657;51.128;5.938;2023-02-01T01:23:42;6.12;5.96;5.65;4.98;39.77;39.75;39.65;39.12;33.08;0.64
65875;SPS30;52657;51.128;5.938;2023-02-01T01:26:12;6.25;6.07;5.73;5.03;40.15;40.13;40.03;39.46;33.32;0.67
65875;SPS30;52657;51.128;5.938;2023-02-01T01:28:40;5.76;5.62;5.34;4.72;37.71;37.70;37.61;37.13;31.43;0.66
65875;SPS30;52657;51.128;5.938;2023-02-01T01:31:07;6.11;5.95;5.64;4.99;39.83;39.81;39.72;39.20;33.16;0.65
65875;SPS30;52657;51.128;5.938;2023-02-01T01:33:34;6.25;6.05;5.68;4.93;39.40;39.38;39.27;38.66;32.57;0.65
65875;SPS30;52657;51.128;5.938;2023-02-01T01:36:00;6.68;6.49;6.11;5.34;42.64;42.62;42.51;41.89;35.33;0.68
65875;SPS30;52657;51.128;5.938;2023-02-01T01:38:26;7.22;6.99;6.55;5.69;45.46;45.43;45.30;44.60;37.55;0.67
65875;SPS30;52657;51.128;5.938;2023-02-01T01:40:51;6.84;6.65;6.29;5.53;44.16;44.14;44.03;43.42;36.69;0.65
65875;SPS30;52657;51.128;5.938;2023-02-01T01:43:18;6.42;6.24;5.91;5.21;41.59;41.57;41.47;40.91;34.58;0.66
65875;SPS30;52657;51.128;5.938;2023-02-01T01:45:48;6.57;6.40;6.06;5.34;42.64;42.62;42.51;41.94;35.46;0.65
65875;SPS30;52657;51.128;5.938;2023-02-01T01:48:16;7.34;7.06;6.51;5.52;44.09;44.06;43.91;43.07;36.02;0.68
65875;SPS30;52657;51.128;5.938;2023-02-01T01:50:56;7.11;6.82;6.27;5.28;42.21;42.18;42.02;41.18;34.38;0.67
65875;SPS30;52657;51.128;5.938;2023-02-01T01:53:32;6.59;6.39;6.00;5.23;41.80;41.78;41.66;41.03;34.59;0.64
65875;SPS30;52657;51.128;5.938;2023-02-01T01:56:03;6.57;6.39;6.02;5.26;42.05;42.03;41.92;41.31;34.86;0.64
65875;SPS30;52657;51.128;5.938;2023-02-01T01:58:29;7.07;6.78;6.20;5.19;41.48;41.45;41.29;40.42;33.69;0.68
65875;SPS30;52657;51.128;5.938;2023-02-01T02:00:59;7.39;7.10;6.53;5.52;44.11;44.08;43.92;43.06;35.98;0.68
65875;SPS30;52657;51.128;5.938;2023-02-01T02:03:27;7.40;7.09;6.47;5.41;43.26;43.23;43.05;42.14;35.10;0.71
65875;SPS30;52657;51.128;5.938;2023-02-01T02:05:59;6.37;6.16;5.75;4.97;39.69;39.66;39.55;38.90;32.71;0.66
65875;SPS30;52657;51.128;5.938;2023-02-01T02:08:30;6.63;6.41;5.98;5.16;41.21;41.19;41.06;40.38;33.94;0.67
65875;SPS30;52657;51.128;5.938;2023-02-01T02:10:56;6.62;6.41;6.01;5.21;41.65;41.63;41.51;40.86;34.40;0.67
65875;SPS30;52657;51.128;5.938;2023-02-01T02:13:29;6.77;6.56;6.16;5.36;42.85;42.82;42.70;42.05;35.43;0.69
65875;SPS30;52657;51.128;5.938;2023-02-01T02:30:02;6.85;6.60;6.11;5.22;41.70;41.67;41.53;40.77;34.17;0.67
65875;SPS30;52657;51.128;5.938;2023-02-01T02:35:54;6.49;6.32;5.98;5.27;42.13;42.11;42.01;41.45;35.04;0.65
65875;SPS30;52657;51.128;5.938;2023-02-01T02:38:52;6.31;6.15;5.86;5.19;41.48;41.47;41.37;40.86;34.61;0.64
65875;SPS30;52657;51.128;5.938;2023-02-01T02:41:54;6.54;6.34;5.95;5.18;41.40;41.38;41.27;40.64;34.24;0.66
65875;SPS30;52657;51.128;5.938;2023-02-01T02:45:17;6.52;6.26;5.75;4.85;38.72;38.69;38.55;37.77;31.54;0.70
65875;SPS30;52657;51.128;5.938;2023-02-01T02:48:16;6.23;6.00;5.55;4.74;37.85;37.83;37.70;37.01;31.01;0.69
65875;SPS30;52657;51.128;5.938;2023-02-01T02:51:01;6.24;6.05;5.67;4.93;39.41;39.39;39.28;38.68;32.58;0.68
65875;SPS30;52657;51.128;5.938;2023-02-01T02:56:46;6.88;6.60;6.04;5.07;40.52;40.49;40.33;39.49;32.93;0.72
65875;SPS30;52657;51.128;5.938;2023-02-01T02:59:33;7.19;6.84;6.15;5.03;40.20;40.17;39.98;38.98;32.25;0.70
65875;SPS30;52657;51.128;5.938;2023-02-01T03:02:20;6.81;6.52;5.94;4.95;39.58;39.55;39.39;38.53;32.07;0.69
65875;SPS30;52657;51.128;5.938;2023-02-01T03:05:06;6.51;6.22;5.67;4.72;37.72;37.69;37.54;36.71;30.54;0.71
65875;SPS30;52657;51.128;5.938;2023-02-01T03:07:46;6.61;6.34;5.83;4.92;39.28;39.25;39.11;38.32;32.00;0.70
65875;SPS30;52657;51.128;5.938;2023-02-01T03:18:18;6.85;6.55;5.97;4.98;39.79;39.76;39.60;38.73;32.23;0.71
65875;SPS30;52657;51.128;5.938;2023-02-01T03:20:53;7.22;6.78;5.93;4.63;37.00;36.96;36.73;35.54;28.96;0.74
65875;SPS30;52657;51.128;5.938;2023-02-01T03:23:23;7.21;6.79;5.96;4.68;37.42;37.38;37.16;35.99;29.40;0.73
65875;SPS30;52657;51.128;5.938;2023-02-01T03:25:55;6.83;6.46;5.72;4.57;36.50;36.46;36.26;35.22;28.91;0.73
65875;SPS30;52657;51.128;5.938;2023-02-01T03:28:25;7.02;6.68;6.02;4.93;39.39;39.35;39.17;38.21;31.62;0.70
65875;SPS30;52657;51.128;5.938;2023-02-01T03:30:56;6.80;6.46;5.82;4.76;38.01;37.98;37.80;36.86;30.49;0.70
65875;SPS30;52657;51.128;5.938;2023-02-01T03:33:23;7.29;6.90;6.14;4.93;39.43;39.40;39.19;38.10;31.35;0.73
65875;SPS30;52657;51.128;5.938;2023-02-01T03:36:09;7.36;6.98;6.24;5.04;40.28;40.25;40.04;38.97;32.13;0.74
65875;SPS30;52657;51.128;5.938;2023-02-01T03:38:54;7.40;6.97;6.13;4.83;38.59;38.55;38.32;37.14;30.36;0.74
65875;SPS30;52657;51.128;5.938;2023-02-01T03:41:58;7.62;7.19;6.35;5.04;40.27;40.23;40.00;38.82;31.81;0.73
65875;SPS30;52657;51.128;5.938;2023-02-01T03:44:41;7.41;6.95;6.05;4.69;37.48;37.44;37.20;35.94;29.22;0.74
65875;SPS30;52657;51.128;5.938;2023-02-01T03:47:14;7.24;6.80;5.94;4.62;36.96;36.92;36.69;35.48;28.89;0.75
65875;SPS30;52657;51.128;5.938;2023-02-01T03:49:47;7.41;6.97;6.10;4.77;38.16;38.12;37.88;36.67;29.90;0.74
65875;SPS30;52657;51.128;5.938;2023-02-01T03:52:24;7.24;6.79;5.89;4.54;36.31;36.27;36.03;34.78;28.23;0.74
65875;SPS30;52657;51.128;5.938;2023-02-01T03:54:56;7.37;6.86;5.87;4.41;35.23;35.18;34.91;33.55;26.98;0.76
65875;SPS30;52657;51.128;5.938;2023-02-01T03:57:26;7.62;7.08;6.03;4.49;35.94;35.89;35.61;34.17;27.40;0.78
65875;SPS30;52657;51.128;5.938;2023-02-01T04:00:03;6.09;5.75;5.08;4.03;32.22;32.19;32.00;31.05;25.45;0.74
65875;SPS30;52657;51.128;5.938;2023-02-01T04:02:39;6.71;6.28;5.46;4.21;33.68;33.64;33.41;32.27;26.20;0.74
65875;SPS30;52657;51.128;5.938;2023-02-01T04:05:05;6.81;6.33;5.38;4.00;31.98;31.94;31.68;30.39;24.34;0.76
65875;SPS30;52657;51.128;5.938;2023-02-01T04:07:32;6.96;6.44;5.43;3.96;31.66;31.61;31.34;29.96;23.83;0.78
65875;SPS30;52657;51.128;5.938;2023-02-01T04:09:57;7.14;6.61;5.57;4.08;32.61;32.57;32.29;30.88;24.60;0.77
65875;SPS30;52657;51.128;5.938;2023-02-01T04:12:23;8.49;7.76;6.35;4.38;35.02;34.96;34.58;32.70;25.43;0.81
65875;SPS30;52657;51.128;5.938;2023-02-01T04:14:49;8.49;7.72;6.23;4.18;33.45;33.38;32.99;31.01;23.83;0.82
65875;SPS30;52657;51.128;5.938;2023-02-01T04:17:14;8.34;7.54;5.99;3.88;31.06;30.99;30.58;28.54;21.58;0.85
65875;SPS30;52657;51.128;5.938;2023-02-01T04:19:40;7.61;6.95;5.65;3.84;30.76;30.70;30.36;28.63;22.15;0.84
65875;SPS30;52657;51.128;5.938;2023-02-01T04:22:06;8.00;7.30;5.93;4.03;32.29;32.23;31.86;30.04;23.23;0.85
65875;SPS30;52657;51.128;5.938;2023-02-01T04:24:31;7.77;7.11;5.83;4.03;32.24;32.19;31.84;30.13;23.46;0.83
65875;SPS30;52657;51.128;5.938;2023-02-01T04:26:57;7.42;6.79;5.56;3.84;30.69;30.63;30.31;28.66;22.30;0.84
65875;SPS30;52657;51.128;5.938;2023-02-01T04:29:23;7.81;7.14;5.83;4.01;32.07;32.01;31.67;29.92;23.24;0.85
65875;SPS30;52657;51.128;5.938;2023-02-01T04:31:49;8.76;7.93;6.32;4.11;32.89;32.82;32.40;30.26;22.94;0.87
65875;SPS30;52657;51.128;5.938;2023-02-01T04:34:14;8.39;7.59;6.02;3.88;31.06;31.00;30.58;28.51;21.52;0.86
65875;SPS30;52657;51.128;5.938;2023-02-01T04:36:41;8.42;7.62;6.06;3.92;31.42;31.35;30.94;28.88;21.85;0.84
65875;SPS30;52657;51.128;5.938;2023-02-01T04:39:08;8.02;7.27;5.81;3.82;30.55;30.48;30.10;28.17;21.45;0.83
65875;SPS30;52657;51.128;5.938;2023-02-01T04:41:34;7.54;6.86;5.54;3.72;29.81;29.75;29.40;27.65;21.27;0.83
65875;SPS30;52657;51.128;5.938;2023-02-01T04:44:00;7.63;6.94;5.58;3.72;29.78;29.73;29.37;27.57;21.13;0.83
65875;SPS30;52657;51.128;5.938;2023-02-01T04:46:26;9.18;8.25;6.43;3.99;31.97;31.89;31.41;29.04;21.50;0.88
65875;SPS30;52657;51.128;5.938;2023-02-01T04:48:52;8.57;7.73;6.09;3.87;30.98;30.91;30.48;28.32;21.22;0.87
65875;SPS30;52657;51.128;5.938;2023-02-01T04:51:18;8.55;7.72;6.11;3.92;31.42;31.35;30.93;28.81;21.70;0.87
65875;SPS30;52657;51.128;5.938;2023-02-01T04:53:44;8.52;7.67;5.99;3.74;29.93;29.86;29.42;27.22;20.21;0.87
65875;SPS30;52657;51.128;5.938;2023-02-01T04:56:10;8.71;7.84;6.15;3.87;30.96;30.89;30.45;28.23;21.04;0.88
65875;SPS30;52657;51.128;5.938;2023-02-01T04:58:36;8.41;7.56;5.90;3.66;29.33;29.25;28.82;26.64;19.73;0.90
65875;SPS30;52657;51.128;5.938;2023-02-01T05:01:02;9.10;8.15;6.31;3.85;30.81;30.73;30.25;27.84;20.42;0.91
65875;SPS30;52657;51.128;5.938;2023-02-01T05:03:30;8.86;7.93;6.11;3.68;29.52;29.44;28.96;26.59;19.39;0.93
65875;SPS30;52657;51.128;5.938;2023-02-01T05:05:57;7.91;7.13;5.60;3.54;28.31;28.25;27.85;25.84;19.31;0.90
65875;SPS30;52657;51.128;5.938;2023-02-01T05:08:22;8.58;7.70;5.98;3.67;29.41;29.33;28.88;26.63;19.61;0.90
65875;SPS30;52657;51.128;5.938;2023-02-01T05:10:50;8.23;7.40;5.76;3.56;28.54;28.47;28.04;25.90;19.15;0.91
65875;SPS30;52657;51.128;5.938;2023-02-01T05:13:16;8.84;7.93;6.16;3.79;30.32;30.24;29.78;27.46;20.23;0.91
65875;SPS30;52657;51.128;5.938;2023-02-01T05:16:00;8.61;7.71;5.97;3.64;29.12;29.04;28.59;26.31;19.29;0.91
65875;SPS30;52657;51.128;5.938;2023-02-01T05:18:26;9.10;8.14;6.28;3.79;30.37;30.29;29.80;27.37;19.98;0.89
65875;SPS30;52657;51.128;5.938;2023-02-01T05:20:52;8.40;7.56;5.92;3.70;29.63;29.56;29.13;26.97;20.05;0.87
65875;SPS30;52657;51.128;5.938;2023-02-01T05:23:18;8.63;7.76;6.06;3.77;30.21;30.14;29.69;27.46;20.37;0.88
65875;SPS30;52657;51.128;5.938;2023-02-01T05:25:43;8.34;7.49;5.84;3.61;28.94;28.86;28.43;26.26;19.43;0.88
65875;SPS30;52657;51.128;5.938;2023-02-01T05:28:09;7.63;6.88;5.41;3.42;27.41;27.35;26.96;25.03;18.73;0.87
65875;SPS30;52657;51.128;5.938;2023-02-01T05:30:35;8.23;7.41;5.80;3.64;29.14;29.07;28.65;26.54;19.76;0.88
65875;SPS30;52657;51.128;5.938;2023-02-01T05:33:01;8.55;7.67;5.96;3.66;29.34;29.26;28.81;26.57;19.58;0.90
65875;SPS30;52657;51.128;5.938;2023-02-01T05:35:27;8.55;7.68;5.99;3.71;29.69;29.62;29.17;26.95;19.94;0.90
65875;SPS30;52657;51.128;5.938;2023-02-01T05:37:53;9.57;8.54;6.55;3.89;31.17;31.08;30.56;27.96;20.22;0.92
65875;SPS30;52657;51.128;5.938;2023-02-01T05:40:19;8.59;7.67;5.88;3.49;27.95;27.87;27.40;25.06;18.12;0.92
65875;SPS30;52657;51.128;5.938;2023-02-01T05:42:45;8.97;8.01;6.14;3.64;29.19;29.11;28.62;26.18;18.93;0.91
65875;SPS30;52657;51.128;5.938;2023-02-01T05:45:11;8.67;7.75;5.95;3.55;28.47;28.39;27.92;25.57;18.55;0.89
65875;SPS30;52657;51.128;5.938;2023-02-01T05:47:37;9.18;8.20;6.28;3.72;29.79;29.71;29.20;26.70;19.28;0.90
65875;SPS30;52657;51.128;5.938;2023-02-01T05:50:03;8.33;7.48;5.83;3.61;28.88;28.81;28.38;26.21;19.38;0.89
65875;SPS30;52657;51.128;5.938;2023-02-01T05:52:30;8.03;7.23;5.67;3.55;28.47;28.40;27.99;25.93;19.31;0.89
65875;SPS30;52657;51.128;5.938;2023-02-01T05:54:56;8.86;7.95;6.17;3.79;30.33;30.25;29.79;27.46;20.21;0.91
65875;SPS30;52657;51.128;5.938;2023-02-01T05:57:22;9.07;8.16;6.38;3.98;31.86;31.78;31.31;28.98;21.52;0.92
65875;SPS30;52657;51.128;5.938;2023-02-01T05:59:47;9.13;8.20;6.38;3.94;31.54;31.47;30.99;28.61;21.13;0.91
65875;SPS30;52657;51.128;5.938;2023-02-01T06:02:14;9.15;8.22;6.40;3.96;31.74;31.66;31.18;28.80;21.30;0.90
65875;SPS30;52657;51.128;5.938;2023-02-01T06:04:40;8.65;7.80;6.13;3.88;31.07;31.00;30.56;28.38;21.22;0.89
65875;SPS30;52657;51.128;5.938;2023-02-01T06:07:06;8.15;7.40;5.93;3.93;31.42;31.35;30.97;29.03;22.18;0.84
65875;SPS30;52657;51.128;5.938;2023-02-01T06:09:34;8.34;7.54;5.98;3.85;30.81;30.74;30.33;28.27;21.33;0.85
65875;SPS30;52657;51.128;5.938;2023-02-01T06:12:00;8.80;7.89;6.12;3.74;29.97;29.89;29.43;27.11;19.92;0.90
65875;SPS30;52657;51.128;5.938;2023-02-01T06:14:27;9.31;8.34;6.44;3.90;31.27;31.18;30.69;28.21;20.63;0.90
65875;SPS30;52657;51.128;5.938;2023-02-01T06:16:53;9.31;8.38;6.55;4.09;32.71;32.63;32.15;29.76;22.10;0.88
65875;SPS30;52657;51.128;5.938;2023-02-01T06:19:20;9.01;8.10;6.34;3.96;31.70;31.63;31.16;28.85;21.44;0.89
65875;SPS30;52657;51.128;5.938;2023-02-01T06:21:49;8.06;7.27;5.73;3.64;29.13;29.06;28.65;26.63;19.95;0.87
65875;SPS30;52657;51.128;5.938;2023-02-01T06:24:15;8.30;7.50;5.94;3.81;30.50;30.43;30.02;27.95;21.05;0.85
65875;SPS30;52657;51.128;5.938;2023-02-01T06:26:41;7.87;7.13;5.68;3.70;29.62;29.56;29.18;27.26;20.68;0.87
65875;SPS30;52657;51.128;5.938;2023-02-01T06:29:09;8.46;7.65;6.07;3.91;31.32;31.25;30.83;28.74;21.70;0.86
65875;SPS30;52657;51.128;5.938;2023-02-01T06:31:35;8.31;7.50;5.91;3.75;30.03;29.96;29.54;27.45;20.57;0.86
65875;SPS30;52657;51.128;5.938;2023-02-01T06:34:00;7.91;7.14;5.63;3.59;28.75;28.69;28.29;26.31;19.75;0.86
65875;SPS30;52657;51.128;5.938;2023-02-01T06:36:28;8.70;7.82;6.10;3.79;30.37;30.30;29.85;27.60;20.45;0.88
65875;SPS30;52657;51.128;5.938;2023-02-01T06:38:55;9.47;8.50;6.60;4.06;32.50;32.41;31.92;29.43;21.69;0.89
65875;SPS30;52657;51.128;5.938;2023-02-01T06:41:22;9.74;8.73;6.76;4.13;33.07;32.99;32.47;29.90;21.95;0.91
65875;SPS30;52657;51.128;5.938;2023-02-01T06:43:48;9.97;8.94;6.94;4.25;34.06;33.98;33.45;30.83;22.68;0.91
65875;SPS30;52657;51.128;5.938;2023-02-01T06:46:14;9.21;8.30;6.52;4.11;32.92;32.84;32.37;30.03;22.42;0.89
65875;SPS30;52657;51.128;5.938;2023-02-01T06:48:40;9.65;8.68;6.77;4.21;33.72;33.63;33.13;30.64;22.71;0.90
65875;SPS30;52657;51.128;5.938;2023-02-01T06:51:15;8.86;8.02;6.36;4.11;32.88;32.80;32.37;30.19;22.80;0.87
65875;SPS30;52657;51.128;5.938;2023-02-01T06:53:45;8.87;8.04;6.41;4.18;33.48;33.41;32.98;30.83;23.40;0.87
65875;SPS30;52657;51.128;5.938;2023-02-01T06:56:11;8.72;7.86;6.19;3.92;31.38;31.31;30.87;28.66;21.45;0.87
65875;SPS30;52657;51.128;5.938;2023-02-01T06:58:37;8.53;7.73;6.17;4.03;32.28;32.21;31.80;29.74;22.59;0.85
65875;SPS30;52657;51.128;5.938;2023-02-01T07:01:04;7.71;7.06;5.79;4.02;32.15;32.09;31.75;30.06;23.44;0.81
65875;SPS30;52657;51.128;5.938;2023-02-01T07:03:32;8.48;7.72;6.23;4.18;33.42;33.36;32.96;30.99;23.81;0.83
65875;SPS30;52657;51.128;5.938;2023-02-01T07:05:58;8.62;7.80;6.20;4.02;32.16;32.09;31.67;29.56;22.37;0.86
65875;SPS30;52657;51.128;5.938;2023-02-01T07:08:24;8.40;7.59;6.02;3.89;31.11;31.04;30.63;28.56;21.56;0.87
65875;SPS30;52657;51.128;5.938;2023-02-01T07:10:52;9.46;8.49;6.60;4.06;32.53;32.45;31.96;29.48;21.74;0.89
65875;SPS30;52657;51.128;5.938;2023-02-01T07:13:18;9.36;8.41;6.57;4.08;32.71;32.63;32.14;29.73;22.04;0.90
65875;SPS30;52657;51.128;5.938;2023-02-01T07:15:44;8.69;7.84;6.18;3.93;31.48;31.41;30.98;28.80;21.60;0.89
65875;SPS30;52657;51.128;5.938;2023-02-01T07:18:13;8.76;7.93;6.31;4.09;32.75;32.68;32.25;30.11;22.80;0.86
65875;SPS30;52657;51.128;5.938;2023-02-01T07:20:40;8.13;7.35;5.82;3.73;29.88;29.82;29.41;27.39;20.63;0.87
65875;SPS30;52657;51.128;5.938;2023-02-01T07:23:06;8.17;7.37;5.80;3.68;29.45;29.38;28.97;26.91;20.15;0.88
65875;SPS30;52657;51.128;5.938;2023-02-01T07:25:35;9.09;8.14;6.28;3.80;30.42;30.34;29.85;27.43;20.03;0.90
65875;SPS30;52657;51.128;5.938;2023-02-01T07:28:01;8.48;7.68;6.11;3.97;31.78;31.71;31.29;29.22;22.14;0.85
65875;SPS30;52657;51.128;5.938;2023-02-01T07:30:26;7.81;7.15;5.88;4.09;32.70;32.64;32.31;30.60;23.89;0.84
65875;SPS30;52657;51.128;5.938;2023-02-01T07:32:52;8.04;7.31;5.89;3.93;31.48;31.42;31.05;29.16;22.37;0.87
65875;SPS30;52657;51.128;5.938;2023-02-01T07:35:18;8.95;8.07;6.35;4.02;32.18;32.11;31.66;29.40;21.99;0.89
65875;SPS30;52657;51.128;5.938;2023-02-01T07:37:43;8.73;7.86;6.16;3.87;30.99;30.92;30.47;28.24;21.04;0.90
65875;SPS30;52657;51.128;5.938;2023-02-01T07:40:10;9.44;8.47;6.58;4.04;32.32;32.24;31.74;29.27;21.55;0.90
65875;SPS30;52657;51.128;5.938;2023-02-01T07:42:36;9.46;8.48;6.57;4.01;32.10;32.01;31.51;29.01;21.29;0.89
65875;SPS30;52657;51.128;5.938;2023-02-01T07:45:02;8.14;7.31;5.69;3.52;28.19;28.12;27.69;25.58;18.91;0.87
65875;SPS30;52657;51.128;5.938;2023-02-01T07:47:29;8.69;7.76;5.95;3.54;28.32;28.24;27.77;25.40;18.38;0.89
65875;SPS30;52657;51.128;5.938;2023-02-01T07:49:55;8.89;7.96;6.14;3.72;29.77;29.69;29.22;26.85;19.62;0.90
65875;SPS30;52657;51.128;5.938;2023-02-01T07:52:20;8.56;7.71;6.04;3.80;30.43;30.36;29.92;27.74;20.68;0.87
65875;SPS30;52657;51.128;5.938;2023-02-01T07:54:46;9.32;8.38;6.55;4.08;32.65;32.57;32.09;29.69;22.03;0.87
65875;SPS30;52657;51.128;5.938;2023-02-01T07:57:12;10.55;9.42;7.22;4.30;34.44;34.34;33.77;30.91;22.38;0.91
65875;SPS30;52657;51.128;5.938;2023-02-01T07:59:38;9.24;8.29;6.43;3.93;31.48;31.40;30.91;28.48;20.93;0.90
65875;SPS30;52657;51.128;5.938;2023-02-01T08:02:27;9.32;8.34;6.43;3.88;31.08;30.99;30.49;28.00;20.43;0.91
65875;SPS30;52657;51.128;5.938;2023-02-01T08:04:53;9.19;8.26;6.43;3.97;31.78;31.71;31.23;28.83;21.30;0.90
65875;SPS30;52657;51.128;5.938;2023-02-01T08:07:18;8.95;8.04;6.27;3.88;31.11;31.03;30.56;28.24;20.89;0.88
65875;SPS30;52657;51.128;5.938;2023-02-01T08:09:47;10.00;8.95;6.88;4.13;33.08;32.99;32.45;29.76;21.64;0.90
65875;SPS30;52657;51.128;5.938;2023-02-01T08:12:13;8.53;7.72;6.15;4.01;32.11;32.04;31.62;29.55;22.42;0.85
65875;SPS30;52657;51.128;5.938;2023-02-01T08:14:38;7.75;7.07;5.72;3.87;30.96;30.90;30.54;28.76;22.18;0.83
65875;SPS30;52657;51.128;5.938;2023-02-01T08:17:06;7.77;7.05;5.65;3.72;29.81;29.75;29.38;27.52;20.99;0.82
65875;SPS30;52657;51.128;5.938;2023-02-01T08:19:32;8.09;7.33;5.84;3.81;30.50;30.44;30.05;28.09;21.32;0.82
65875;SPS30;52657;51.128;5.938;2023-02-01T08:21:58;8.12;7.33;5.80;3.72;29.77;29.71;29.30;27.29;20.54;0.84
65875;SPS30;52657;51.128;5.938;2023-02-01T08:24:25;7.61;6.89;5.48;3.57;28.55;28.49;28.12;26.27;19.91;0.85
65875;SPS30;52657;51.128;5.938;2023-02-01T08:26:50;7.92;7.17;5.69;3.68;29.42;29.36;28.97;27.02;20.42;0.86
65875;SPS30;52657;51.128;5.938;2023-02-01T08:29:16;8.32;7.55;6.06;4.01;32.13;32.06;31.67;29.69;22.69;0.86
65875;SPS30;52657;51.128;5.938;2023-02-01T08:31:43;7.96;7.22;5.79;3.83;30.66;30.59;30.22;28.33;21.63;0.87
65875;SPS30;52657;51.128;5.938;2023-02-01T08:34:09;8.87;8.04;6.42;4.20;33.63;33.56;33.13;30.99;23.56;0.85
65875;SPS30;52657;51.128;5.938;2023-02-01T08:36:37;8.56;7.72;6.07;3.84;30.78;30.71;30.28;28.12;21.03;0.88
65875;SPS30;52657;51.128;5.938;2023-02-01T08:39:03;7.75;7.02;5.60;3.66;29.33;29.27;28.89;27.02;20.53;0.85
65875;SPS30;52657;51.128;5.938;2023-02-01T08:41:34;7.74;7.05;5.71;3.85;30.80;30.74;30.38;28.60;22.04;0.83
65875;SPS30;52657;51.128;5.938;2023-02-01T08:44:00;7.74;7.05;5.69;3.82;30.59;30.53;30.17;28.37;21.82;0.83
65875;SPS30;52657;51.128;5.938;2023-02-01T08:46:26;7.64;6.96;5.63;3.80;30.39;30.33;29.98;28.22;21.74;0.82
65875;SPS30;52657;51.128;5.938;2023-02-01T08:48:52;7.77;7.08;5.74;3.88;31.06;31.00;30.65;28.86;22.27;0.82
65875;SPS30;52657;51.128;5.938;2023-02-01T08:51:19;8.49;7.64;5.97;3.74;29.91;29.84;29.40;27.22;20.24;0.88
65875;SPS30;52657;51.128;5.938;2023-02-01T08:53:46;8.66;7.78;6.06;3.75;30.02;29.95;29.50;27.24;20.14;0.89
65875;SPS30;52657;51.128;5.938;2023-02-01T08:56:14;8.09;7.31;5.78;3.70;29.66;29.59;29.19;27.18;20.45;0.87
65875;SPS30;52657;51.128;5.938;2023-02-01T08:58:41;8.19;7.41;5.89;3.82;30.61;30.54;30.14;28.14;21.31;0.85
65875;SPS30;52657;51.128;5.938;2023-02-01T09:01:07;8.36;7.57;6.02;3.91;31.28;31.21;30.80;28.76;21.78;0.85
65875;SPS30;52657;51.128;5.938;2023-02-01T09:03:42;8.40;7.62;6.08;3.97;31.79;31.72;31.32;29.28;22.25;0.85
65875;SPS30;52657;51.128;5.938;2023-02-01T09:06:09;8.23;7.43;5.86;3.75;29.99;29.92;29.51;27.46;20.63;0.87
65875;SPS30;52657;51.128;5.938;2023-02-01T09:08:42;7.64;6.89;5.43;3.45;27.63;27.57;27.18;25.26;18.94;0.87
65875;SPS30;52657;51.128;5.938;2023-02-01T09:11:13;8.06;7.29;5.77;3.72;29.75;29.69;29.29;27.30;20.59;0.87
65875;SPS30;52657;51.128;5.938;2023-02-01T09:13:41;8.49;7.65;6.01;3.79;30.37;30.30;29.87;27.71;20.70;0.87
65875;SPS30;52657;51.128;5.938;2023-02-01T09:16:10;8.59;7.76;6.15;3.96;31.71;31.64;31.21;29.09;21.94;0.85
65875;SPS30;52657;51.128;5.938;2023-02-01T09:18:36;7.93;7.19;5.75;3.78;30.22;30.16;29.78;27.87;21.22;0.85
65875;SPS30;52657;51.128;5.938;2023-02-01T09:21:05;7.85;7.14;5.77;3.86;30.93;30.87;30.50;28.68;22.04;0.83
65875;SPS30;52657;51.128;5.938;2023-02-01T09:23:32;7.79;7.13;5.82;4.00;32.01;31.95;31.61;29.87;23.20;0.82
65875;SPS30;52657;51.128;5.938;2023-02-01T09:25:59;6.97;6.39;5.27;3.69;29.54;29.49;29.20;27.69;21.69;0.82
65875;SPS30;52657;51.128;5.938;2023-02-01T09:28:29;7.74;7.05;5.71;3.85;30.85;30.79;30.43;28.65;22.08;0.85
65875;SPS30;52657;51.128;5.938;2023-02-01T09:30:58;7.84;7.12;5.72;3.79;30.37;30.31;29.94;28.08;21.48;0.87
65875;SPS30;52657;51.128;5.938;2023-02-01T09:33:27;7.68;7.01;5.70;3.87;31.00;30.94;30.59;28.85;22.31;0.84
65875;SPS30;52657;51.128;5.938;2023-02-01T09:35:58;6.98;6.42;5.34;3.80;30.39;30.34;30.05;28.59;22.53;0.82
65875;SPS30;52657;51.128;5.938;2023-02-01T09:38:26;6.46;5.94;4.93;3.50;28.02;27.98;27.71;26.35;20.74;0.81
65875;SPS30;52657;51.128;5.938;2023-02-01T09:40:52;7.14;6.54;5.37;3.72;29.80;29.75;29.44;27.87;21.73;0.81
65875;SPS30;52657;51.128;5.938;2023-02-01T09:48:55;7.35;6.69;5.41;3.63;29.08;29.02;28.68;26.98;20.76;0.82
65875;SPS30;52657;51.128;5.938;2023-02-01T09:51:28;7.33;6.72;5.53;3.85;30.83;30.78;30.46;28.87;22.56;0.80